Data for 09/22/2008

Time Sea-Level Adjusted Pressure Absolute Pressure Temperature Relative Humidity Dew Point   
(mb) (inHg) (mb) (inHg) (C) (F) (%) (C) (F)
00:05 1014 29.94 844 24.92 9.8 49.6 71 4.7 40.5
00:10 1015 29.97 844 24.92 9.8 49.6 71 4.8 40.6
00:15 1015 29.97 844 24.92 9.8 49.6 71 4.8 40.6
00:20 1015 29.97 844 24.92 9.8 49.6 71 4.7 40.5
00:25 1015 29.97 844 24.92 9.8 49.6 69 4.5 40.1
00:30 1015 29.97 844 24.92 9.9 49.9 69 4.5 40.2
00:35 1014 29.94 844 24.92 10 50.1 69 4.6 40.3
00:40 1014 29.94 844 24.92 9.7 49.4 71 4.7 40.5
00:45 1014 29.94 844 24.92 9.5 49.1 73 4.9 40.8
00:50 1014 29.94 844 24.92 9.4 49 73 4.9 40.8
00:55 1014 29.94 844 24.92 9.4 48.9 72 4.7 40.5
01:00 1014 29.94 844 24.92 9.5 49.1 73 5 41
01:05 1014 29.94 844 24.92 9.3 48.7 76 5.2 41.4
01:10 1014 29.94 843 24.89 9.1 48.3 75 4.9 40.9
01:15 1014 29.94 843 24.89 9.1 48.3 75 4.8 40.7
01:20 1014 29.94 843 24.89 9.1 48.3 73 4.6 40.3
01:25 1014 29.94 843 24.89 9.1 48.5 73 4.6 40.4
01:30 1014 29.94 844 24.92 9.3 48.7 76 5.3 41.5
01:35 1014 29.94 843 24.89 9.3 48.7 77 5.4 41.7
01:40 1014 29.94 843 24.89 9.3 48.7 75 5.2 41.3
01:45 1014 29.94 844 24.92 9.3 48.7 72 4.5 40.1
01:50 1014 29.94 844 24.92 9.3 48.8 75 5.1 41.1
01:55 1014 29.94 844 24.92 9.3 48.7 74 5 41
02:00 1014 29.94 844 24.92 9.1 48.4 76 5.1 41.2
02:05 1014 29.94 844 24.92 8.9 48 78 5.3 41.6
02:10 1014 29.94 844 24.92 8.9 48 76 4.9 40.8
02:15 1014 29.94 844 24.92 9.2 48.5 76 5.1 41.3
02:20 1014 29.94 844 24.92 9.4 48.8 74 5 41
02:25 1015 29.97 844 24.92 9.4 48.8 76 5.3 41.5
02:30 1015 29.97 844 24.92 9.4 48.8 75 5.2 41.4
02:35 1015 29.97 844 24.92 9.4 48.9 72 4.7 40.4
02:40 1015 29.97 844 24.92 9.5 49.1 73 4.9 40.9
02:45 1015 29.97 844 24.92 9.5 49 74 5 41.1
02:50 1015 29.97 844 24.92 9 48.1 78 5.3 41.6
02:55 1015 29.97 844 24.92 8.6 47.5 79 5.2 41.4
03:00 1015 29.97 844 24.92 8.6 47.5 77 4.8 40.7
03:05 1015 29.97 844 24.92 8.9 48 78 5.3 41.6
03:10 1015 29.97 844 24.92 9 48.3 78 5.5 41.8
03:15 1015 29.97 844 24.92 9.1 48.4 77 5.2 41.4
03:20 1015 29.97 844 24.92 9.3 48.7 76 5.3 41.6
03:25 1015 29.97 844 24.92 9.3 48.8 76 5.3 41.6
03:30 1015 29.97 844 24.92 9.3 48.7 75 5 41.1
03:35 1015 29.97 844 24.92 9.2 48.5 80 5.9 42.6
03:40 1015 29.97 844 24.92 9 48.1 79 5.5 41.9
03:45 1015 29.97 844 24.92 8.9 47.9 79 5.4 41.7
03:50 1015 29.97 844 24.92 8.8 47.9 78 5.1 41.2
03:55 1015 29.97 844 24.92 8.8 47.9 78 5.2 41.4
04:00 1015 29.97 844 24.92 8.9 47.9 78 5.3 41.5
04:05 1015 29.97 844 24.92 8.8 47.9 78 5.3 41.5
04:10 1015 29.97 844 24.92 8.8 47.9 77 5.1 41.2
04:15 1015 29.97 845 24.95 8.9 48 76 4.9 40.9
04:20 1015 29.97 845 24.95 9 48.2 77 5.1 41.2
04:25 1015 29.97 845 24.95 9.1 48.3 76 5.1 41.1
04:30 1015 29.97 845 24.95 9.1 48.4 75 4.9 40.9
04:35 1015 29.97 845 24.95 9.1 48.4 76 5.1 41.2
04:40 1015 29.97 845 24.95 9.1 48.4 75 4.8 40.7
04:45 1016 30 845 24.95 9.1 48.4 75 5 41
04:50 1016 30 845 24.95 9.3 48.7 75 5 41.1
04:55 1016 30 845 24.95 9.4 48.8 74 5 41
05:00 1016 30 845 24.95 9.5 49 72 4.7 40.4
05:05 1016 30 845 24.95 9.5 49.1 70 4.4 40
05:10 1016 30 845 24.95 9.6 49.2 69 4.3 39.7
05:15 1016 30 845 24.95 9.6 49.2 69 4.1 39.4
05:20 1016 30 845 24.95 9.4 48.9 71 4.5 40.1
05:25 1016 30 845 24.95 9.3 48.8 70 4.2 39.6
05:30 1016 30 845 24.95 9.3 48.7 70 4.2 39.6
05:35 1016 30 845 24.95 9.2 48.5 71 4.1 39.4
05:40 1016 30 845 24.95 9.1 48.4 69 3.7 38.6
05:45 1016 30 845 24.95 9 48.2 69 3.6 38.5
05:50 1016 30 845 24.95 9 48.1 72 4.3 39.7
05:55 1016 30 845 24.95 8.7 47.6 79 5.2 41.3
06:00 1016 30 845 24.95 8.4 47.1 81 5.2 41.4
06:05 1016 30 845 24.95 8.4 47 82 5.5 41.8
06:10 1016 30 845 24.95 8.3 47 79 4.9 40.8
06:15 1016 30 845 24.95 8.4 47.1 78 4.7 40.4
06:20 1016 30 845 24.95 8.1 46.6 82 5.2 41.4
06:25 1016 30 845 24.95 7.7 45.8 81 4.6 40.3
06:30 1016 30 845 24.95 7.5 45.5 82 4.6 40.3
06:35 1016 30 845 24.95 7.4 45.3 83 4.8 40.6
06:40 1016 30 845 24.95 7.3 45.2 82 4.5 40.1
06:45 1016 30 845 24.95 7.2 45 79 3.9 39.1
06:50 1016 30 845 24.95 7.3 45.1 80 4 39.2
06:55 1016 30 845 24.95 7.2 44.9 79 3.9 39
07:00 1016 30 845 24.95 7.2 45 77 3.5 38.3
07:05 1016 30 845 24.95 7.4 45.2 78 3.7 38.7
07:10 1016 30 845 24.95 7.7 45.8 75 3.6 38.5
07:15 1016 30 845 24.95 7.8 46.1 77 4.1 39.4
07:20 1016 30 845 24.95 7.8 46.1 77 4 39.2
07:25 1016 30 845 24.95 7.9 46.2 76 4 39.2
07:30 1016 30 845 24.95 7.8 46.1 75 3.6 38.5
07:35 1016 30 845 24.95 7.6 45.7 77 3.9 38.9
07:40 1016 30 845 24.95 7.4 45.3 75 3.3 37.9
07:45 1016 30 845 24.95 7.6 45.6 75 3.4 38.1
07:50 1016 30 845 24.95 7.8 46 73 3.3 37.9
07:55 1016 30 845 24.95 8.2 46.7 73 3.6 38.5
08:00 1016 30 845 24.95 7.9 46.1 74 3.5 38.2
08:05 1016 30 845 24.95 7.6 45.7 74 3.3 37.9
08:10 1016 30 845 24.95 7.8 46 70 2.7 36.8
08:15 1016 30 845 24.95 8.2 46.7 69 2.8 37.1
08:20 1016 30 845 24.95 8.6 47.4 68 3 37.4
08:25 1016 30 845 24.95 9.2 48.5 66 3.2 37.7
08:30 1016 30 845 24.95 9 48.2 68 3.5 38.3
08:35 1016 30 845 24.95 9.2 48.6 65 3.1 37.5
08:40 1016 30 845 24.95 9.8 49.6 63 3.1 37.6
08:45 1016 30 845 24.95 9.8 49.6 64 3.4 38.1
08:50 1016 30 846 24.98 10.6 51.1 61 3.5 38.3
08:55 1016 30 846 24.98 11.4 52.5 58 3.5 38.3
09:00 1016 30 846 24.98 11.7 53 56 3.3 38
09:05 1016 30 846 24.98 11.6 52.8 58 3.6 38.4
09:10 1016 30 846 24.98 11.6 52.9 53 2.4 36.3
09:15 1016 30 846 24.98 11.7 53.1 54 2.6 36.8
09:20 1017 30.03 846 24.98 12.2 54 54 3.2 37.7
09:25 1017 30.03 846 24.98 12.7 54.8 49 2.4 36.3
09:30 1017 30.03 846 24.98 12.5 54.4 53 3.2 37.8
09:35 1017 30.03 846 24.98 12.4 54.3 50 2.2 36
09:40 1017 30.03 846 24.98 13 55.3 46 1.7 35.1
09:45 1017 30.03 846 24.98 13.2 55.7 46 2 35.6
09:50 1017 30.03 846 24.98 13.5 56.2 44 1.5 34.7
09:55 1017 30.03 846 24.98 13.8 56.8 43 1.7 35
10:00 1017 30.03 846 24.98 13.2 55.8 45 1.6 34.9
10:05 1017 30.03 846 24.98 13 55.4 45 1.4 34.5
10:10 1017 30.03 846 24.98 12.9 55.1 47 1.9 35.5
10:15 1017 30.03 846 24.98 12.6 54.8 47 1.7 35.1
10:20 1017 30.03 846 24.98 13 55.3 48 2.1 35.9
10:25 1017 30.03 846 24.98 12.8 55.1 49 2.5 36.5
10:30 1017 30.03 846 24.98 12.5 54.5 49 2.1 35.8
10:35 1017 30.03 846 24.98 13.3 55.9 47 2.4 36.3
10:40 1017 30.03 846 24.98 13.7 56.7 45 2.1 35.8
10:45 1017 30.03 846 24.98 13.8 56.8 45 2.2 35.9
10:50 1017 30.03 846 24.98 13.3 55.9 46 2 35.6
10:55 1017 30.03 846 24.98 13.4 56.1 47 2.2 36
11:00 1017 30.03 846 24.98 13.3 56 45 1.7 35.1
11:05 1017 30.03 846 24.98 13.6 56.5 45 2 35.6
11:10 1017 30.03 846 24.98 13.8 56.8 45 2.2 36
11:15 1017 30.03 846 24.98 13.5 56.2 45 1.9 35.5
11:20 1017 30.03 846 24.98 13.7 56.6 45 2 35.7
11:25 1017 30.03 846 24.98 14 57.3 44 2 35.5
11:30 1017 30.03 846 24.98 14.4 57.9 43 2.1 35.7
11:35 1017 30.03 846 24.98 14.7 58.4 39 1 33.7
11:40 1017 30.03 846 24.98 14.6 58.3 40 1.3 34.3
11:45 1016 30 846 24.98 14.8 58.6 39 1 33.8
11:50 1016 30 846 24.98 15 58.9 40 1.7 35
11:55 1016 30 846 24.98 15.1 59.2 41 2 35.6
12:00 1016 30 845 24.95 14.8 58.6 41 1.6 34.9
12:05 1016 30 845 24.95 15.2 59.4 40 1.6 35
12:10 1016 30 845 24.95 15.1 59.3 39 1.4 34.6
12:15 1016 30 845 24.95 14.4 57.8 39 0.6 33.1
12:20 1016 30 845 24.95 15.2 59.4 37 0.8 33.4
12:25 1016 30 845 24.95 15.2 59.4 38 1.1 34
12:30 1016 30 845 24.95 14.6 58.2 39 0.8 33.4
12:35 1016 30 845 24.95 14.8 58.7 40 1.3 34.3
12:40 1016 30 845 24.95 14.5 58.1 40 1.2 34.1
12:45 1016 30 845 24.95 14.3 57.8 39 0.5 32.9
12:50 1016 30 845 24.95 14.3 57.7 40 1.1 34
12:55 1016 30 845 24.95 14.5 58 39 0.7 33.3
13:00 1016 30 845 24.95 14.5 58.1 39 1 33.7
13:05 1016 30 845 24.95 14.3 57.8 40 0.9 33.7
13:10 1016 30 845 24.95 14.4 58 38 0.5 33
13:15 1016 30 845 24.95 15 59 36 0.2 32.3
13:20 1016 30 845 24.95 15.3 59.5 36 0.5 33
13:25 1016 30 845 24.95 15.6 60.1 31 -1.4 29.5
13:30 1016 30 845 24.95 16.5 61.8 31 -0.6 31
13:35 1016 30 845 24.95 16.5 61.7 33 0.4 32.7
13:40 1016 30 845 24.95 15.9 60.5 37 1.2 34.1
13:45 1016 30 845 24.95 15.8 60.5 37 1.3 34.3
13:50 1016 30 845 24.95 15.5 59.8 39 1.7 35
13:55 1016 30 845 24.95 14.3 57.7 39 0.7 33.3
14:00 1016 30 845 24.95 14.2 57.5 39 0.5 32.8
14:05 1016 30 845 24.95 14 57.2 41 1 33.8
14:10 1016 30 845 24.95 13.8 56.8 39 0.3 32.5
14:15 1016 30 845 24.95 15 59 37 0.6 33.1
14:20 1016 30 845 24.95 15 59 38 0.8 33.4
14:25 1016 30 845 24.95 15.8 60.4 38 1.5 34.8
14:30 1016 30 845 24.95 15.5 59.8 35 0.1 32.3
14:35 1016 30 845 24.95 15 59 38 0.7 33.3
14:40 1016 30 845 24.95 14.2 57.6 39 0.4 32.7
14:45 1016 30 845 24.95 14.4 57.9 39 0.7 33.2
14:50 1016 30 845 24.95 15 58.9 36 0 32
14:55 1016 30 845 24.95 14.8 58.7 37 0.4 32.8
15:00 1016 30 845 24.95 14.8 58.7 37 0.3 32.5
15:05 1016 30 845 24.95 14.8 58.6 35 -0.4 31.3
15:10 1016 30 845 24.95 15.3 59.6 33 -0.6 30.9
15:15 1016 30 845 24.95 15.9 60.6 31 -0.9 30.4
15:20 1016 30 845 24.95 15.6 60.2 32 -0.7 30.8
15:25 1016 30 845 24.95 15.3 59.5 35 -0.1 31.8
15:30 1016 30 845 24.95 15.3 59.5 33 -0.9 30.4
15:35 1016 30 845 24.95 15.9 60.6 33 -0.1 31.8
15:40 1016 30 845 24.95 16.5 61.7 31 -0.4 31.2
15:45 1016 30 845 24.95 15.4 59.8 33 -0.5 31.1
15:50 1016 30 845 24.95 14.9 58.8 33 -1 30.2
15:55 1016 30 845 24.95 14.8 58.7 33 -1.1 30
16:00 1016 30 845 24.95 14.8 58.7 34 -0.9 30.4
16:05 1016 30 845 24.95 15.5 59.8 32 -1.2 29.9
16:10 1016 30 845 24.95 15.6 60.1 31 -1.6 29.2
16:15 1016 30 845 24.95 15.4 59.8 30 -1.9 28.5
16:20 1016 30 845 24.95 15.4 59.7 31 -1.7 29
16:25 1016 30 845 24.95 15.3 59.6 30 -2.1 28.2
16:30 1016 30 845 24.95 15.2 59.3 30 -2 28.4
16:35 1016 30 845 24.95 15.1 59.1 30 -2.4 27.7
16:40 1016 30 845 24.95 14.7 58.5 31 -2.2 28.1
16:45 1016 30 845 24.95 15 59 30 -2.2 28
16:50 1016 30 845 24.95 15 59.1 27 -3.6 25.5
16:55 1016 30 845 24.95 14.9 58.9 29 -2.8 26.9
17:00 1016 30 845 24.95 14.9 58.8 32 -1.8 28.8
17:05 1016 30 845 24.95 14.9 58.8 30 -2.3 27.8
17:10 1016 30 845 24.95 14.8 58.7 31 -1.9 28.7
17:15 1016 30 845 24.95 14.5 58.2 32 -1.9 28.6
17:20 1016 30 845 24.95 14.4 58 31 -2.5 27.5
17:25 1016 30 845 24.95 14.3 57.8 32 -2.2 28.1
17:30 1016 30 845 24.95 14.3 57.7 36 -0.7 30.8
17:35 1016 30 846 24.98 14 57.2 37 -0.4 31.2
17:40 1016 30 846 24.98 13.5 56.4 37 -0.7 30.7
17:45 1016 30 845 24.95 13.4 56.1 38 -0.6 30.9
17:50 1016 30 845 24.95 13.3 56 39 -0.4 31.3
17:55 1016 30 845 24.95 13.4 56 36 -1.4 29.4
18:00 1016 30 845 24.95 13.6 56.6 34 -1.7 29
18:05 1016 30 845 24.95 14.3 57.8 32 -2 28.3
18:10 1016 30 845 24.95 14.2 57.5 35 -1 30.3
18:15 1016 30 845 24.95 13.5 56.3 37 -0.9 30.4
18:20 1016 30 845 24.95 13.2 55.8 35 -2 28.5
18:25 1016 30 845 24.95 13.2 55.8 38 -0.7 30.7
18:30 1016 30 845 24.95 13.1 55.5 40 -0 32
18:35 1016 30 845 24.95 12.9 55.1 44 0.9 33.7
18:40 1016 30 845 24.95 12.7 54.8 46 1.4 34.6
18:45 1016 30 845 24.95 12.5 54.5 47 1.4 34.6
18:50 1016 30 845 24.95 12.5 54.4 47 1.6 34.8
18:55 1016 30 846 24.98 12.3 54.1 47 1.5 34.7
19:00 1016 30 846 24.98 12.1 53.8 46 0.9 33.6
19:05 1016 30 846 24.98 12.2 53.9 45 0.6 33
19:10 1016 30 846 24.98 12.4 54.3 45 0.8 33.4
19:15 1016 30 846 24.98 12.4 54.4 45 0.8 33.4
19:20 1016 30 846 24.98 12.1 53.8 48 1.5 34.6
19:25 1016 30 846 24.98 12 53.7 47 1.3 34.3
19:30 1016 30 846 24.98 12 53.6 47 1 33.8
19:35 1016 30 846 24.98 12.1 53.7 43 0.1 32.1
19:40 1016 30 846 24.98 12.3 54.1 41 -0.4 31.3
19:45 1016 30 846 24.98 12.5 54.5 41 -0.4 31.3
19:50 1016 30 846 24.98 12.4 54.4 42 -0 32
19:55 1016 30 846 24.98 12.2 54 43 -0 32
20:00 1016 30 846 24.98 12 53.6 44 0.2 32.4
20:05 1016 30 846 24.98 11.8 53.2 48 1.3 34.3
20:10 1016 30 846 24.98 11.1 52 53 1.8 35.3
20:15 1016 30 846 24.98 10.7 51.3 55 2.1 35.9
20:20 1017 30.03 846 24.98 10.5 50.8 54 1.6 34.9
20:25 1017 30.03 846 24.98 11.2 52.2 44 -0.7 30.8
20:30 1016 30 846 24.98 11.9 53.4 43 -0.1 31.8
20:35 1017 30.03 846 24.98 11.5 52.8 48 1.1 33.9
20:40 1017 30.03 846 24.98 10.9 51.7 52 1.5 34.8
20:45 1017 30.03 846 24.98 10.6 51 51 1 33.9
20:50 1017 30.03 846 24.98 10.2 50.4 59 2.6 36.7
20:55 1017 30.03 846 24.98 9.9 49.8 59 2.3 36.2
21:00 1017 30.03 846 24.98 9.9 49.8 57 1.9 35.5
21:05 1017 30.03 846 24.98 10 50 58 2.2 35.9
21:10 1017 30.03 846 24.98 9.6 49.2 63 3 37.4
21:15 1017 30.03 846 24.98 9 48.1 60 1.6 34.9
21:20 1017 30.03 846 24.98 9.5 49.1 58 1.7 35
21:25 1016 30 846 24.98 9.9 49.8 54 1 33.7
21:30 1016 30 845 24.95 10 50.1 59 2.5 36.5
21:35 1016 30 845 24.95 9.5 49.1 63 2.8 37
21:40 1016 30 846 24.98 9.2 48.5 62 2.4 36.3
21:45 1016 30 846 24.98 9.5 49.1 55 0.9 33.7
21:50 1017 30.03 846 24.98 10 50 61 2.9 37.3
21:55 1017 30.03 846 24.98 9.5 49.1 61 2.3 36.1
22:00 1017 30.03 846 24.98 9.6 49.2 58 1.8 35.2
22:05 1017 30.03 846 24.98 9.7 49.5 61 2.5 36.6
22:10 1018 30.06 847 25.01 9.3 48.8 64 3 37.4
22:15 1018 30.06 848 25.04 7.9 46.3 71 3.1 37.6
22:20 1018 30.06 848 25.04 6.8 44.3 73 2.3 36.2
22:25 1019 30.09 848 25.04 6.7 44 74 2.4 36.3
22:30 1019 30.09 848 25.04 6.4 43.6 74 2.1 35.8
22:35 1019 30.09 848 25.04 6.3 43.4 73 1.8 35.3
22:40 1019 30.09 848 25.04 6.2 43.2 73 1.8 35.2
22:45 1019 30.09 848 25.04 6.1 43.1 70 1.1 34
22:50 1019 30.09 849 25.07 5.9 42.7 73 1.4 34.6
22:55 1019 30.09 849 25.07 5.7 42.3 74 1.5 34.7
23:00 1020 30.12 849 25.07 5.7 42.3 78 2.2 35.9
23:05 1020 30.12 849 25.07 5.7 42.3 80 2.6 36.7
23:10 1020 30.12 849 25.07 5.4 41.8 81 2.5 36.4
23:15 1020 30.12 849 25.07 5 41.1 81 2 35.6
23:20 1020 30.12 850 25.1 4.9 40.8 80 1.7 35.1
23:25 1021 30.15 850 25.1 4.9 40.8 80 1.8 35.2
23:30 1021 30.15 850 25.1 5.1 41.2 79 1.8 35.2
23:35 1021 30.15 850 25.1 5.1 41.2 79 1.7 35.1
23:40 1021 30.15 850 25.1 5.2 41.3 77 1.6 34.8
23:45 1021 30.15 850 25.1 5.4 41.7 76 1.5 34.6
23:50 1021 30.15 850 25.1 5.4 41.7 78 1.8 35.2
23:55 1021 30.15 850 25.1 5.1 41.3 79 1.7 35.1
24:00 1021 30.15 850 25.1 5.2 41.4 77 1.5 34.8